createdAt,value
2022-09-21T00:01:23.596Z,2.47
2022-09-21T00:04:00.199Z,1.80
2022-09-21T00:06:29.019Z,1.92
2022-09-21T00:08:56.164Z,2.60
2022-09-21T00:11:26.105Z,2.38
2022-09-21T00:13:55.295Z,2.53
2022-09-21T00:16:22.312Z,2.65
2022-09-21T00:18:48.975Z,2.00
2022-09-21T00:21:16.427Z,1.85
2022-09-21T00:23:44.628Z,2.17
2022-09-21T00:26:14.120Z,1.90
2022-09-21T00:28:41.279Z,1.67
2022-09-21T00:31:12.104Z,1.77
2022-09-21T00:33:40.155Z,1.98
2022-09-21T00:36:09.692Z,2.25
2022-09-21T00:38:37.698Z,1.92
2022-09-21T00:41:06.620Z,1.83
2022-09-21T00:43:40.535Z,2.13
2022-09-21T00:46:15.615Z,2.30
2022-09-21T00:48:42.861Z,2.42
2022-09-21T00:51:29.417Z,2.70
2022-09-21T00:54:22.931Z,3.00
2022-09-21T00:57:09.584Z,2.40
2022-09-21T00:59:58.309Z,2.20
2022-09-21T01:02:45.977Z,2.40
2022-09-21T01:05:33.471Z,2.20
2022-09-21T01:08:02.786Z,2.30
2022-09-21T01:10:38.080Z,1.70
2022-09-21T01:13:16.890Z,1.92
2022-09-21T01:15:49.600Z,2.00
2022-09-21T01:18:35.282Z,1.95
2022-09-21T01:21:26.370Z,2.05
2022-09-21T01:24:02.697Z,1.90
2022-09-21T01:26:47.726Z,2.25
2022-09-21T01:29:21.414Z,2.00
2022-09-21T01:32:07.841Z,2.10
2022-09-21T01:34:44.761Z,1.58
2022-09-21T01:37:17.324Z,2.13
2022-09-21T01:39:47.579Z,1.75
2022-09-21T01:42:16.307Z,1.90
2022-09-21T01:44:45.119Z,1.83
2022-09-21T01:47:14.322Z,1.95
2022-09-21T01:49:52.699Z,2.20
2022-09-21T01:52:37.583Z,2.20
2022-09-21T01:55:09.236Z,1.88
2022-09-21T01:57:40.481Z,1.67
2022-09-21T02:00:08.810Z,1.90
2022-09-21T02:02:47.860Z,1.70
2022-09-21T02:05:17.643Z,1.83
2022-09-21T02:07:47.849Z,1.80
2022-09-21T02:10:29.460Z,2.70
2022-09-21T02:13:01.412Z,2.15
2022-09-21T02:15:54.710Z,2.95
2022-09-21T02:18:54.896Z,2.13
2022-09-21T02:21:28.262Z,2.53
2022-09-21T02:24:21.835Z,1.95
2022-09-21T02:27:32.427Z,2.30
2022-09-21T02:30:19.401Z,1.95
2022-09-21T02:32:53.315Z,2.55
2022-09-21T02:35:36.137Z,2.33
2022-09-21T02:38:15.807Z,1.92
2022-09-21T02:40:54.824Z,1.85
2022-09-21T02:43:28.163Z,2.00
2022-09-21T02:46:16.589Z,2.00
2022-09-21T02:48:51.179Z,2.20
2022-09-21T02:51:23.232Z,2.10
2022-09-21T02:53:53.793Z,2.10
2022-09-21T02:56:21.957Z,1.95
2022-09-21T02:58:56.974Z,2.40
2022-09-21T03:01:26.504Z,2.22
2022-09-21T03:03:53.219Z,2.00
2022-09-21T03:06:19.953Z,2.00
2022-09-21T03:08:46.733Z,2.00
2022-09-21T03:11:17.208Z,2.03
2022-09-21T03:13:44.891Z,2.30
2022-09-21T03:16:12.474Z,2.10
2022-09-21T03:18:40.444Z,2.50
2022-09-21T03:21:06.952Z,1.90
2022-09-21T03:23:33.561Z,1.90
2022-09-21T03:26:00.670Z,2.20
2022-09-21T03:28:27.294Z,2.15
2022-09-21T03:30:53.836Z,2.67
2022-09-21T03:33:21.446Z,2.05
2022-09-21T03:35:48.861Z,2.00
2022-09-21T03:38:17.001Z,2.30
2022-09-21T03:40:48.219Z,2.72
2022-09-21T03:43:15.221Z,2.35
2022-09-21T03:45:42.817Z,2.33
2022-09-21T03:48:10.921Z,2.30
2022-09-21T03:50:38.553Z,2.47
2022-09-21T03:53:05.778Z,2.47
2022-09-21T03:55:33.106Z,2.40
2022-09-21T03:58:01.767Z,2.28
2022-09-21T04:00:28.778Z,2.60
2022-09-21T04:02:56.249Z,2.70
2022-09-21T04:05:23.506Z,2.55
2022-09-21T04:07:50.950Z,2.25
2022-09-21T04:10:29.532Z,2.47
2022-09-21T04:13:03.323Z,2.42
2022-09-21T04:15:30.584Z,2.33
2022-09-21T04:17:57.734Z,2.70
2022-09-21T04:20:24.532Z,2.80
2022-09-21T04:22:52.860Z,3.00
2022-09-21T04:25:19.374Z,2.47
2022-09-21T04:27:46.573Z,2.30
2022-09-21T04:30:15.319Z,3.08
2022-09-21T04:32:41.758Z,3.10
2022-09-21T04:35:09.088Z,3.53
2022-09-21T04:37:35.892Z,3.03
2022-09-21T04:40:02.670Z,2.83
2022-09-21T04:42:29.322Z,3.42
2022-09-21T04:44:55.884Z,2.85
2022-09-21T04:47:25.084Z,3.20
2022-09-21T04:49:53.509Z,3.53
2022-09-21T04:52:20.499Z,2.90
2022-09-21T04:54:47.596Z,3.67
2022-09-21T04:57:14.658Z,2.97
2022-09-21T04:59:41.212Z,3.75
2022-09-21T05:02:07.875Z,3.17
2022-09-21T05:04:34.271Z,3.45
2022-09-21T05:07:00.708Z,3.08
2022-09-21T05:09:45.864Z,3.33
2022-09-21T05:12:12.309Z,3.13
2022-09-21T05:14:39.386Z,3.50
2022-09-21T05:17:05.779Z,3.58
2022-09-21T05:19:32.547Z,3.35
2022-09-21T05:21:58.926Z,3.00
2022-09-21T05:24:25.485Z,2.95
2022-09-21T05:26:51.902Z,3.72
2022-09-21T05:29:18.600Z,3.17
2022-09-21T05:31:53.564Z,2.92
2022-09-21T05:34:53.510Z,3.10
2022-09-21T05:38:09.021Z,3.40
2022-09-21T05:40:35.924Z,2.75
2022-09-21T05:43:02.850Z,3.20
2022-09-21T05:45:29.496Z,3.30
2022-09-21T05:48:13.805Z,3.70
2022-09-21T05:50:59.783Z,3.83
2022-09-21T05:53:39.464Z,4.20
2022-09-21T05:56:14.993Z,3.83
2022-09-21T05:58:50.620Z,3.22
2022-09-21T06:01:23.122Z,3.20
2022-09-21T06:03:50.196Z,3.47
2022-09-21T06:06:21.003Z,2.90
2022-09-21T06:11:14.462Z,3.60
2022-09-21T06:13:41.592Z,3.65
2022-09-21T06:16:08.322Z,3.22
2022-09-21T06:18:42.524Z,3.63
2022-09-21T06:21:09.467Z,3.58
2022-09-21T06:23:37.146Z,3.10
2022-09-21T06:26:04.208Z,3.10
2022-09-21T06:28:30.676Z,2.90
2022-09-21T06:30:58.438Z,3.08
2022-09-21T06:33:25.511Z,3.08
2022-09-21T06:35:59.994Z,2.78
2022-09-21T06:38:28.051Z,2.22
2022-09-21T06:40:55.074Z,2.80
2022-09-21T06:43:22.334Z,2.40
2022-09-21T06:45:57.305Z,2.28
2022-09-21T06:48:24.682Z,1.90
2022-09-21T06:50:51.537Z,1.90
2022-09-21T06:53:18.564Z,1.90
2022-09-21T06:55:45.083Z,2.00
2022-09-21T06:58:11.567Z,2.25
2022-09-21T07:00:37.972Z,3.05
2022-09-21T07:03:04.784Z,3.10
2022-09-21T07:05:33.646Z,3.15
2022-09-21T07:08:00.625Z,2.80
2022-09-21T07:10:27.654Z,2.22
2022-09-21T07:12:54.337Z,2.20
2022-09-21T07:15:21.279Z,2.20
2022-09-21T07:17:50.308Z,2.13
2022-09-21T07:20:18.916Z,2.40
2022-09-21T07:22:45.361Z,1.83
2022-09-21T07:25:11.813Z,2.28
2022-09-21T07:27:38.307Z,2.40
2022-09-21T07:30:06.107Z,2.40
2022-09-21T07:32:33.084Z,2.70
2022-09-21T07:35:00.935Z,2.97
2022-09-21T07:37:28.237Z,3.72
2022-09-21T07:39:55.149Z,4.25
2022-09-21T07:42:23.044Z,3.95
2022-09-21T07:44:50.923Z,3.85
2022-09-21T07:47:18.113Z,3.85
2022-09-21T07:49:45.658Z,3.50
2022-09-21T07:52:12.283Z,3.75
2022-09-21T07:54:38.931Z,3.50
2022-09-21T07:57:24.028Z,3.28
2022-09-21T07:59:50.697Z,2.70
2022-09-21T08:02:17.473Z,2.67
2022-09-21T08:04:44.089Z,2.63
2022-09-21T08:07:10.575Z,3.17
2022-09-21T08:09:37.013Z,3.28
2022-09-21T08:12:03.938Z,3.05
2022-09-21T08:14:30.510Z,3.97
2022-09-21T08:16:57.081Z,3.15
2022-09-21T08:19:26.038Z,3.30
2022-09-21T08:21:57.217Z,3.63
2022-09-21T08:24:26.954Z,3.20
2022-09-21T08:26:55.585Z,2.95
2022-09-21T08:29:22.054Z,3.13
2022-09-21T08:31:48.612Z,3.15
2022-09-21T08:34:16.070Z,2.83
2022-09-21T08:36:42.748Z,2.72
2022-09-21T08:39:09.323Z,2.85
2022-09-21T08:41:49.724Z,2.50
2022-09-21T08:44:28.488Z,2.60
2022-09-21T08:47:21.325Z,2.60
2022-09-21T08:49:55.033Z,2.88
2022-09-21T08:52:24.796Z,2.30
2022-09-21T08:54:51.392Z,2.50
2022-09-21T08:57:19.796Z,2.10
2022-09-21T08:59:48.279Z,2.28
2022-09-21T09:03:00.340Z,2.28
2022-09-21T09:06:01.422Z,3.03
2022-09-21T09:08:46.099Z,2.47
2022-09-21T09:11:55.133Z,2.72
2022-09-21T09:14:27.946Z,2.35
2022-09-21T09:17:04.182Z,2.50
2022-09-21T09:19:51.884Z,2.20
2022-09-21T09:22:27.731Z,3.15
2022-09-21T09:24:59.163Z,2.33
2022-09-21T09:27:35.139Z,2.80
2022-09-21T09:30:27.007Z,2.40
2022-09-21T09:33:10.980Z,1.95
2022-09-21T09:35:43.137Z,2.17
2022-09-21T09:38:18.672Z,1.88
2022-09-21T09:41:08.203Z,1.70
2022-09-21T09:43:53.582Z,1.88
2022-09-21T09:46:54.117Z,1.73
2022-09-21T09:49:39.678Z,1.63
2022-09-21T09:52:10.778Z,1.73
2022-09-21T09:54:37.671Z,1.50
2022-09-21T09:57:05.869Z,1.58
2022-09-21T09:59:36.956Z,1.38
2022-09-21T10:02:24.959Z,0.82
2022-09-21T10:05:08.762Z,1.38
2022-09-21T10:07:45.833Z,1.50
2022-09-21T10:10:23.450Z,1.50
2022-09-21T10:12:52.416Z,1.58
2022-09-21T10:15:23.534Z,1.17
2022-09-21T10:17:59.492Z,1.80
2022-09-21T10:20:26.391Z,1.55
2022-09-21T10:22:56.954Z,1.33
2022-09-21T10:25:23.754Z,1.00
2022-09-21T10:27:52.190Z,1.40
2022-09-21T10:30:33.014Z,0.90
2022-09-21T10:32:59.851Z,1.13
2022-09-21T10:35:27.155Z,1.30
2022-09-21T10:38:22.118Z,1.50
2022-09-21T10:40:49.796Z,1.10
2022-09-21T10:43:35.886Z,1.48
2022-09-21T10:46:04.375Z,1.30
2022-09-21T10:48:31.424Z,1.20
2022-09-21T10:50:58.203Z,1.10
2022-09-21T10:53:36.030Z,1.00
2022-09-21T10:56:15.433Z,1.52
2022-09-21T10:59:13.535Z,0.98
2022-09-21T11:01:48.474Z,0.82
2022-09-21T11:04:25.014Z,0.90
2022-09-21T11:07:02.645Z,1.08
2022-09-21T11:09:51.313Z,0.90
2022-09-21T11:12:26.797Z,1.00
2022-09-21T11:15:01.869Z,0.75
2022-09-21T11:17:39.340Z,0.95
2022-09-21T11:20:30.537Z,1.20
2022-09-21T11:23:04.273Z,1.13
2022-09-21T11:25:55.184Z,1.00
2022-09-21T11:28:27.965Z,0.95
2022-09-21T11:31:01.254Z,1.10
2022-09-21T11:33:46.571Z,0.93
2022-09-21T11:36:27.606Z,0.90
2022-09-21T11:39:04.280Z,0.88
2022-09-21T11:41:53.912Z,1.08
2022-09-21T11:44:32.753Z,0.95
2022-09-21T11:47:26.351Z,0.82
2022-09-21T11:50:31.840Z,0.70
2022-09-21T11:53:24.775Z,0.77
2022-09-21T11:56:19.768Z,0.93
2022-09-21T11:59:24.928Z,1.02
2022-09-21T12:02:41.749Z,0.70
2022-09-21T12:05:50.058Z,0.47
2022-09-21T12:08:30.017Z,0.60
2022-09-21T12:11:25.692Z,0.50
2022-09-21T12:14:09.109Z,0.40
2022-09-21T12:16:58.643Z,0.45
2022-09-21T12:19:45.020Z,0.45
2022-09-21T12:22:19.450Z,0.40
2022-09-21T12:24:56.885Z,0.47
2022-09-21T12:27:30.706Z,0.52
2022-09-21T12:30:03.605Z,0.50
2022-09-21T12:32:47.296Z,0.57
2022-09-21T12:35:19.128Z,0.60
2022-09-21T12:38:01.389Z,0.50
2022-09-21T12:40:38.557Z,0.50
2022-09-21T12:43:18.503Z,0.60
2022-09-21T12:46:31.823Z,0.60
2022-09-21T12:49:01.665Z,0.50
2022-09-21T12:51:35.440Z,0.32
2022-09-21T12:54:14.508Z,0.88
2022-09-21T12:56:51.184Z,0.60
2022-09-21T12:59:36.522Z,0.60
2022-09-21T13:02:12.140Z,0.73
2022-09-21T13:04:54.272Z,0.60
2022-09-21T13:07:40.855Z,0.63
2022-09-21T13:10:28.440Z,0.73
2022-09-21T13:13:02.296Z,0.63
2022-09-21T13:15:41.416Z,0.70
2022-09-21T13:18:18.127Z,0.60
2022-09-21T13:20:45.872Z,0.70
2022-09-21T13:23:20.081Z,0.40
2022-09-21T13:26:00.071Z,0.60
2022-09-21T13:28:41.788Z,0.50
2022-09-21T13:31:40.735Z,0.50
2022-09-21T13:34:23.713Z,0.65
2022-09-21T13:37:15.680Z,0.40
2022-09-21T13:40:11.405Z,0.50
2022-09-21T13:42:39.250Z,0.65
2022-09-21T13:45:14.685Z,0.60
2022-09-21T13:47:43.472Z,0.40
2022-09-21T13:50:24.898Z,0.57
2022-09-21T13:53:35.766Z,0.50
2022-09-21T13:56:09.802Z,0.40
2022-09-21T13:58:45.610Z,0.50
2022-09-21T14:01:42.365Z,0.40
2022-09-21T14:04:20.153Z,0.60
2022-09-21T14:06:49.982Z,0.60
2022-09-21T14:09:41.115Z,0.45
2022-09-21T14:12:18.060Z,0.30
2022-09-21T14:15:12.613Z,0.38
2022-09-21T14:17:40.469Z,0.40
2022-09-21T14:20:30.337Z,0.68
2022-09-21T14:23:14.323Z,0.40
2022-09-21T14:25:51.161Z,0.60
2022-09-21T14:28:26.634Z,0.50
2022-09-21T14:31:01.156Z,0.50
2022-09-21T14:33:33.682Z,0.50
2022-09-21T14:36:06.246Z,0.45
2022-09-21T14:38:42.978Z,0.30
2022-09-21T14:41:17.286Z,0.35
2022-09-21T14:43:52.166Z,0.60
2022-09-21T14:46:53.223Z,0.70
2022-09-21T14:49:46.477Z,0.90
2022-09-21T14:52:43.267Z,0.55
2022-09-21T14:55:39.878Z,0.60
2022-09-21T14:58:19.008Z,0.47
2022-09-21T15:00:50.144Z,0.40
2022-09-21T15:03:30.482Z,0.82
2022-09-21T15:06:31.465Z,0.57
2022-09-21T15:10:00.370Z,0.60
2022-09-21T15:12:46.567Z,0.47
2022-09-21T15:15:41.243Z,0.40
2022-09-21T15:18:20.682Z,0.43
2022-09-21T15:21:02.135Z,0.38
2022-09-21T15:23:33.246Z,0.30
2022-09-21T15:26:08.715Z,0.40
2022-09-21T15:29:07.925Z,0.60
2022-09-21T15:31:35.669Z,0.68
2022-09-21T15:34:05.798Z,0.60
2022-09-21T15:36:35.214Z,0.68
2022-09-21T15:39:01.723Z,0.80
2022-09-21T15:41:34.482Z,0.40
2022-09-21T15:44:16.987Z,0.60
2022-09-21T15:46:49.397Z,0.50
2022-09-21T15:49:21.709Z,0.52
2022-09-21T15:52:26.933Z,0.40
2022-09-21T15:54:58.587Z,1.30
2022-09-21T15:57:45.388Z,1.17
2022-09-21T16:00:18.733Z,0.65
2022-09-21T16:03:04.525Z,0.50
2022-09-21T16:05:54.595Z,0.50
2022-09-21T16:08:26.683Z,0.50
2022-09-21T16:11:09.916Z,0.63
2022-09-21T16:13:55.052Z,0.90
2022-09-21T16:16:22.089Z,0.47
2022-09-21T16:18:51.074Z,0.73
2022-09-21T16:21:27.805Z,0.90
2022-09-21T16:23:58.860Z,1.30
2022-09-21T16:26:38.599Z,0.80
2022-09-21T16:29:08.286Z,0.87
2022-09-21T16:31:36.082Z,0.70
2022-09-21T16:34:07.317Z,0.70
2022-09-21T16:36:37.829Z,0.95
2022-09-21T16:39:12.795Z,1.10
2022-09-21T16:41:44.440Z,0.90
2022-09-21T16:44:16.162Z,1.02
2022-09-21T16:46:44.856Z,1.30
2022-09-21T16:49:18.741Z,1.33
2022-09-21T16:51:47.171Z,1.30
2022-09-21T16:54:13.610Z,1.13
2022-09-21T16:56:40.244Z,0.90
2022-09-21T16:59:23.119Z,1.33
2022-09-21T17:01:56.533Z,0.80
2022-09-21T17:04:26.756Z,1.00
2022-09-21T17:06:54.827Z,1.17
2022-09-21T17:09:33.779Z,1.02
2022-09-21T17:12:01.755Z,0.70
2022-09-21T17:14:35.637Z,0.60
2022-09-21T17:17:13.378Z,0.70
2022-09-21T17:19:41.895Z,0.40
2022-09-21T17:22:17.495Z,0.65
2022-09-21T17:24:51.334Z,1.15
2022-09-21T17:27:24.445Z,1.38
2022-09-21T17:29:53.502Z,1.35
2022-09-21T17:32:23.431Z,1.23
2022-09-21T17:34:57.468Z,1.30
2022-09-21T17:37:25.247Z,1.25
2022-09-21T17:39:51.758Z,1.10
2022-09-21T17:42:21.051Z,1.20
2022-09-21T17:44:59.716Z,1.00
2022-09-21T17:47:29.194Z,0.85
2022-09-21T17:50:02.863Z,0.88
2022-09-21T17:52:48.597Z,1.10
2022-09-21T17:55:15.300Z,0.90
2022-09-21T17:57:59.297Z,1.50
2022-09-21T18:00:42.806Z,1.20
2022-09-21T18:03:21.644Z,1.27
2022-09-21T18:05:51.179Z,1.35
2022-09-21T18:08:18.237Z,1.93
2022-09-21T18:10:56.245Z,1.50
2022-09-21T18:13:37.675Z,1.88
2022-09-21T18:16:27.569Z,1.75
2022-09-21T18:19:12.986Z,2.22
2022-09-21T18:21:42.950Z,2.50
2022-09-21T18:24:19.904Z,2.50
2022-09-21T18:26:47.896Z,2.40
2022-09-21T18:29:41.789Z,2.08
2022-09-21T18:32:21.087Z,2.05
2022-09-21T18:34:54.618Z,1.80
2022-09-21T18:38:19.619Z,1.77
2022-09-21T18:41:04.023Z,1.77
2022-09-21T18:43:57.743Z,1.90
2022-09-21T18:46:34.117Z,2.00
2022-09-21T18:49:23.119Z,2.10
2022-09-21T18:52:02.698Z,2.05
2022-09-21T18:54:29.330Z,2.10
2022-09-21T18:56:56.681Z,2.00
2022-09-21T18:59:23.614Z,1.90
2022-09-21T19:01:50.864Z,2.00
2022-09-21T19:04:18.886Z,1.98
2022-09-21T19:07:13.672Z,2.35
2022-09-21T19:09:51.084Z,2.15
2022-09-21T19:12:28.910Z,1.88
2022-09-21T19:15:59.957Z,1.67
2022-09-21T19:18:52.231Z,1.30
2022-09-21T19:21:41.349Z,1.77
2022-09-21T19:24:19.631Z,1.80
2022-09-21T19:27:09.259Z,1.83
2022-09-21T19:30:04.266Z,1.40
2022-09-21T19:32:53.088Z,1.30
2022-09-21T19:35:25.653Z,1.77
2022-09-21T19:37:54.694Z,1.90
2022-09-21T19:40:33.843Z,1.83
2022-09-21T19:43:12.858Z,1.80
2022-09-21T19:46:06.913Z,2.03
2022-09-21T19:48:43.866Z,1.80
2022-09-21T19:51:49.252Z,2.17
2022-09-21T19:54:38.468Z,1.95
2022-09-21T19:57:35.461Z,1.67
2022-09-21T20:00:04.329Z,1.80
2022-09-21T20:02:44.102Z,1.63
2022-09-21T20:05:13.860Z,1.77
2022-09-21T20:07:53.226Z,1.60
2022-09-21T20:10:22.825Z,1.75
2022-09-21T20:12:55.536Z,2.50
2022-09-21T20:15:29.827Z,1.95
2022-09-21T20:18:14.882Z,1.70
2022-09-21T20:20:43.048Z,1.90
2022-09-21T20:23:13.453Z,2.05
2022-09-21T20:26:05.347Z,1.70
2022-09-21T20:28:32.306Z,1.60
2022-09-21T20:30:59.346Z,1.83
2022-09-21T20:33:31.864Z,2.00
2022-09-21T20:35:58.847Z,2.10
2022-09-21T20:38:25.407Z,1.90
2022-09-21T20:40:51.958Z,1.92
2022-09-21T20:43:19.742Z,1.80
2022-09-21T20:45:49.129Z,2.28
2022-09-21T20:48:16.147Z,1.77
2022-09-21T20:50:46.024Z,2.15
2022-09-21T20:53:13.000Z,2.20
2022-09-21T20:55:41.230Z,2.20
2022-09-21T20:58:11.636Z,1.90
2022-09-21T21:00:41.469Z,2.67
2022-09-21T21:03:08.391Z,2.15
2022-09-21T21:05:34.802Z,1.95
2022-09-21T21:08:04.493Z,2.10
2022-09-21T21:10:31.575Z,2.22
2022-09-21T21:12:58.544Z,1.83
2022-09-21T21:15:25.655Z,1.60
2022-09-21T21:17:52.579Z,2.30
2022-09-21T21:20:19.305Z,2.03
2022-09-21T21:22:49.254Z,2.05
2022-09-21T21:25:16.109Z,2.05
2022-09-21T21:27:43.242Z,2.22
2022-09-21T21:30:11.208Z,2.13
2022-09-21T21:32:37.652Z,1.73
2022-09-21T21:35:04.819Z,2.10
2022-09-21T21:37:31.455Z,2.42
2022-09-21T21:39:58.396Z,2.17
2022-09-21T21:42:25.425Z,1.55
2022-09-21T21:44:52.145Z,1.92
2022-09-21T21:50:06.352Z,1.60
2022-09-21T21:52:33.020Z,1.98
2022-09-21T21:54:59.439Z,1.73
2022-09-21T21:57:25.797Z,2.22
2022-09-21T21:59:52.636Z,1.95
2022-09-21T22:02:19.090Z,1.90
2022-09-21T22:04:45.867Z,2.10
2022-09-21T22:07:12.518Z,2.10
2022-09-21T22:09:39.543Z,1.73
2022-09-21T22:12:06.261Z,2.10
2022-09-21T22:14:33.346Z,2.00
2022-09-21T22:16:59.819Z,2.00
2022-09-21T22:19:26.556Z,3.03
2022-09-21T22:21:54.542Z,1.70
2022-09-21T22:24:22.271Z,1.60
2022-09-21T22:26:49.030Z,1.67
2022-09-21T22:29:17.161Z,1.67
2022-09-21T22:31:46.712Z,1.77
2022-09-21T22:34:14.902Z,1.40
2022-09-21T22:36:43.498Z,1.48
2022-09-21T22:39:11.207Z,1.27
2022-09-21T22:41:40.097Z,1.60
2022-09-21T22:44:07.476Z,1.40
2022-09-21T22:46:34.671Z,1.38
2022-09-21T22:49:01.491Z,1.45
2022-09-21T22:51:29.054Z,1.50
2022-09-21T22:53:56.421Z,1.30
2022-09-21T22:56:34.648Z,1.30
2022-09-21T22:59:03.192Z,1.60
2022-09-21T23:01:35.540Z,1.23
2022-09-21T23:04:13.198Z,1.35
2022-09-21T23:06:43.208Z,1.60
2022-09-21T23:09:14.702Z,1.55
2022-09-21T23:11:44.179Z,1.40
2022-09-21T23:14:11.621Z,1.70
2022-09-21T23:16:38.153Z,1.70
2022-09-21T23:19:15.248Z,1.52
2022-09-21T23:21:43.627Z,1.55
2022-09-21T23:24:10.384Z,1.33
2022-09-21T23:26:36.752Z,1.42
2022-09-21T23:29:06.553Z,1.73
2022-09-21T23:31:33.478Z,1.48
2022-09-21T23:34:04.637Z,1.42
2022-09-21T23:36:32.339Z,1.50
2022-09-21T23:38:59.873Z,1.60
2022-09-21T23:41:32.150Z,1.40
2022-09-21T23:43:59.627Z,1.48
2022-09-21T23:46:32.178Z,1.50
2022-09-21T23:48:59.943Z,1.25
2022-09-21T23:51:27.015Z,1.27
2022-09-21T23:53:54.198Z,1.30
2022-09-21T23:56:22.875Z,1.35
2022-09-21T23:58:50.202Z,1.20
